Terminal Aerodrome Forecast
Issued by NWS Sterling, VA

Current Version | Previous Version | Graphics & Text | Print | Product List | Glossary On
Versions: 1 2 3 4 5 6 7 8 9 10 11 12 13
000
FTUS41 KLWX 212300 RRA
TAFMRB
TAF
KMRB 212349Z 2200/2224 16006KT P6SM SCT250
     FM220900 00000KT P6SM BKN250
     FM221500 23007KT P6SM OVC090
     FM221600 24008KT P6SM -SHRA OVC050
     FM222000 28011KT P6SM BKN090
     FM222300 30014KT P6SM SCT250=

USA.gov is the U.S. government's official web portal to all federal, state and local government web resources and services.